createdAt,value
2018-09-27T00:01:48.184Z,9.36
2018-09-27T00:04:18.159Z,9.37
2018-09-27T00:06:48.913Z,9.44
2018-09-27T00:09:19.329Z,9.41
2018-09-27T00:11:49.604Z,9.44
2018-09-27T00:14:20.429Z,9.54
2018-09-27T00:16:50.795Z,9.51
2018-09-27T00:19:20.930Z,9.56
2018-09-27T00:21:51.184Z,9.61
2018-09-27T00:24:21.223Z,9.55
2018-09-27T00:26:51.638Z,9.28
2018-09-27T00:29:21.892Z,9.09
2018-09-27T00:31:51.924Z,9.08
2018-09-27T00:34:22.508Z,9.01
2018-09-27T00:36:52.988Z,9.01
2018-09-27T00:39:23.273Z,9.00
2018-09-27T00:41:53.593Z,9.00
2018-09-27T00:44:23.751Z,8.99
2018-09-27T00:46:54.283Z,8.89
2018-09-27T00:49:24.953Z,8.85
2018-09-27T00:51:55.722Z,8.85
2018-09-27T00:54:25.955Z,8.81
2018-09-27T00:56:57.247Z,8.78
2018-09-27T00:59:27.125Z,8.75
2018-09-27T01:01:59.137Z,8.70
2018-09-27T01:04:30.081Z,8.75
2018-09-27T01:07:00.356Z,8.66
2018-09-27T01:09:30.472Z,8.66
2018-09-27T01:12:03.349Z,8.70
2018-09-27T01:14:33.449Z,8.70
2018-09-27T01:17:03.633Z,8.74
2018-09-27T01:19:33.537Z,8.78
2018-09-27T01:22:03.679Z,8.80
2018-09-27T01:24:33.821Z,8.72
2018-09-27T01:27:05.101Z,8.70
2018-09-27T01:29:35.204Z,8.74
2018-09-27T01:32:06.444Z,8.71
2018-09-27T01:34:36.664Z,8.75
2018-09-27T01:37:06.894Z,8.79
2018-09-27T01:39:36.901Z,8.81
2018-09-27T01:42:07.253Z,8.73
2018-09-27T01:44:37.393Z,8.79
2018-09-27T01:47:07.637Z,8.85
2018-09-27T01:49:38.288Z,8.86
2018-09-27T01:52:09.069Z,8.83
2018-09-27T01:54:39.202Z,8.93
2018-09-27T01:57:09.844Z,8.92
2018-09-27T01:59:40.173Z,9.00
2018-09-27T02:02:11.913Z,9.07
2018-09-27T02:04:42.137Z,9.06
2018-09-27T02:07:12.417Z,9.06
2018-09-27T02:09:42.660Z,9.01
2018-09-27T02:12:12.878Z,9.02
2018-09-27T02:14:44.018Z,9.03
2018-09-27T02:17:14.062Z,9.06
2018-09-27T02:19:44.040Z,8.89
2018-09-27T02:22:15.326Z,8.78
2018-09-27T02:24:47.081Z,8.97
2018-09-27T02:27:17.176Z,8.89
2018-09-27T02:29:47.097Z,8.78
2018-09-27T02:32:19.754Z,8.85
2018-09-27T02:34:49.757Z,8.86
2018-09-27T02:37:19.947Z,8.83
2018-09-27T02:39:50.008Z,8.82
2018-09-27T02:42:20.400Z,8.82
2018-09-27T02:44:50.413Z,8.83
2018-09-27T02:47:20.429Z,8.86
2018-09-27T02:49:50.608Z,8.81
2018-09-27T02:52:21.536Z,8.80
2018-09-27T02:54:52.242Z,8.79
2018-09-27T02:57:22.481Z,8.75
2018-09-27T02:59:52.674Z,8.49
2018-09-27T03:02:23.140Z,8.18
2018-09-27T03:04:53.635Z,8.16
2018-09-27T03:07:23.716Z,8.10
2018-09-27T03:09:53.834Z,8.13
2018-09-27T03:12:24.069Z,8.13
2018-09-27T03:14:54.414Z,8.14
2018-09-27T03:17:24.555Z,8.23
2018-09-27T03:19:54.498Z,8.26
2018-09-27T03:22:24.406Z,8.23
2018-09-27T03:24:55.082Z,8.31
2018-09-27T03:27:26.324Z,8.27
2018-09-27T03:29:56.465Z,8.32
2018-09-27T03:32:26.728Z,8.32
2018-09-27T03:34:56.822Z,8.36
2018-09-27T03:37:28.342Z,8.40
2018-09-27T03:39:58.907Z,8.45
2018-09-27T03:42:29.893Z,8.48
2018-09-27T03:45:00.054Z,8.43
2018-09-27T03:47:30.223Z,8.38
2018-09-27T03:50:00.683Z,8.37
2018-09-27T03:52:31.904Z,8.37
2018-09-27T03:55:02.165Z,8.34
2018-09-27T03:57:32.392Z,8.08
2018-09-27T04:00:02.551Z,8.01
2018-09-27T04:02:32.883Z,8.01
2018-09-27T04:05:03.065Z,7.91
2018-09-27T04:07:33.630Z,7.92
2018-09-27T04:10:03.938Z,7.91
2018-09-27T04:12:34.770Z,7.90
2018-09-27T04:15:05.835Z,7.94
2018-09-27T04:17:36.141Z,8.03
2018-09-27T04:20:06.201Z,8.00
2018-09-27T04:22:37.507Z,7.98
2018-09-27T04:25:07.772Z,7.91
2018-09-27T04:27:37.893Z,8.04
2018-09-27T04:30:09.712Z,8.26
2018-09-27T04:32:40.836Z,8.35
2018-09-27T04:35:11.179Z,8.59
2018-09-27T04:37:42.310Z,8.62
2018-09-27T04:40:13.644Z,8.62
2018-09-27T04:42:43.715Z,8.70
2018-09-27T04:45:14.356Z,8.72
2018-09-27T04:47:44.686Z,8.85
2018-09-27T04:50:15.706Z,8.91
2018-09-27T04:52:46.086Z,9.06
2018-09-27T04:55:16.179Z,9.15
2018-09-27T04:57:47.670Z,9.50
2018-09-27T05:00:18.195Z,9.93
2018-09-27T05:02:50.168Z,10.27
2018-09-27T05:05:20.625Z,10.68
2018-09-27T05:07:51.696Z,10.39
2018-09-27T05:10:22.912Z,10.09
2018-09-27T05:12:52.969Z,10.08
2018-09-27T05:15:23.096Z,10.25
2018-09-27T05:17:53.259Z,10.40
2018-09-27T05:20:23.522Z,10.41
2018-09-27T05:22:55.728Z,10.30
2018-09-27T05:25:26.611Z,10.27
2018-09-27T05:27:57.465Z,10.66
2018-09-27T05:30:28.559Z,11.12
2018-09-27T05:32:59.001Z,11.28
2018-09-27T05:35:30.077Z,11.34
2018-09-27T05:38:00.191Z,11.62
2018-09-27T05:40:31.456Z,12.41
2018-09-27T05:43:01.880Z,12.45
2018-09-27T05:45:32.093Z,12.46
2018-09-27T05:48:02.421Z,12.87
2018-09-27T05:50:33.516Z,13.45
2018-09-27T05:53:03.789Z,13.82
2018-09-27T05:55:34.329Z,14.28
2018-09-27T05:58:04.435Z,14.92
2018-09-27T06:00:34.651Z,15.01
2018-09-27T06:03:06.550Z,15.26
2018-09-27T06:05:37.889Z,15.35
2018-09-27T06:08:08.123Z,15.70
2018-09-27T06:10:39.761Z,15.59
2018-09-27T06:13:10.049Z,15.24
2018-09-27T06:15:40.467Z,14.91
2018-09-27T06:18:10.647Z,15.25
2018-09-27T06:20:40.797Z,15.34
2018-09-27T06:23:11.262Z,15.63
2018-09-27T06:25:41.329Z,15.95
2018-09-27T06:28:11.660Z,15.83
2018-09-27T06:30:41.708Z,16.19
2018-09-27T06:33:13.419Z,16.13
2018-09-27T06:35:43.826Z,15.52
2018-09-27T06:38:13.924Z,14.95
2018-09-27T06:40:44.230Z,14.61
2018-09-27T06:43:14.266Z,13.98
2018-09-27T06:45:44.475Z,13.70
2018-09-27T06:48:14.831Z,13.65
2018-09-27T06:50:45.373Z,13.51
2018-09-27T06:53:15.572Z,13.20
2018-09-27T06:55:46.521Z,12.91
2018-09-27T06:58:17.770Z,12.83
2018-09-27T07:00:47.990Z,12.90
2018-09-27T07:03:19.119Z,12.97
2018-09-27T07:05:49.152Z,12.82
2018-09-27T07:08:20.226Z,12.89
2018-09-27T07:10:50.835Z,12.97
2018-09-27T07:13:21.369Z,13.10
2018-09-27T07:15:51.811Z,13.19
2018-09-27T07:18:21.990Z,13.40
2018-09-27T07:20:53.196Z,13.54
2018-09-27T07:23:24.143Z,12.95
2018-09-27T07:25:54.246Z,13.48
2018-09-27T07:28:25.461Z,13.64
2018-09-27T07:30:55.788Z,13.78
2018-09-27T07:33:27.647Z,13.88
2018-09-27T07:35:57.720Z,13.90
2018-09-27T07:38:27.982Z,13.94
2018-09-27T07:40:57.925Z,14.13
2018-09-27T07:43:28.641Z,14.23
2018-09-27T07:45:59.175Z,14.28
2018-09-27T07:48:29.722Z,14.37
2018-09-27T07:51:00.187Z,14.48
2018-09-27T07:53:30.723Z,14.51
2018-09-27T07:56:01.154Z,14.60
2018-09-27T07:58:32.482Z,14.54
2018-09-27T08:01:02.626Z,14.57
2018-09-27T08:03:35.278Z,14.61
2018-09-27T08:06:05.676Z,14.69
2018-09-27T08:08:37.010Z,14.94
2018-09-27T08:11:07.315Z,14.87
2018-09-27T08:13:37.607Z,14.85
2018-09-27T08:16:07.667Z,15.10
2018-09-27T08:18:38.672Z,15.01
2018-09-27T08:21:09.014Z,14.83
2018-09-27T08:23:39.204Z,14.90
2018-09-27T08:26:09.385Z,14.99
2018-09-27T08:28:39.786Z,15.09
2018-09-27T08:31:10.017Z,15.25
2018-09-27T08:33:40.145Z,15.35
2018-09-27T08:36:10.448Z,15.31
2018-09-27T08:38:40.766Z,15.38
2018-09-27T08:41:12.256Z,15.40
2018-09-27T08:43:42.687Z,15.23
2018-09-27T08:46:12.807Z,15.44
2018-09-27T08:48:43.365Z,15.54
2018-09-27T08:51:13.632Z,15.48
2018-09-27T08:53:44.735Z,15.39
2018-09-27T08:56:15.113Z,15.46
2018-09-27T08:58:45.331Z,15.69
2018-09-27T09:01:15.840Z,15.89
2018-09-27T09:03:48.067Z,15.94
2018-09-27T09:06:18.025Z,16.05
2018-09-27T09:08:48.235Z,16.17
2018-09-27T09:11:18.574Z,16.04
2018-09-27T09:13:48.691Z,16.01
2018-09-27T09:16:18.904Z,15.92
2018-09-27T09:18:49.248Z,16.04
2018-09-27T09:21:20.568Z,16.22
2018-09-27T09:23:50.558Z,16.43
2018-09-27T09:26:21.539Z,16.63
2018-09-27T09:28:51.484Z,16.57
2018-09-27T09:31:21.836Z,16.73
2018-09-27T09:33:51.959Z,16.54
2018-09-27T09:36:22.172Z,16.30
2018-09-27T09:38:52.713Z,16.43
2018-09-27T09:41:23.113Z,16.74
2018-09-27T09:43:53.687Z,16.79
2018-09-27T09:46:23.842Z,16.68
2018-09-27T09:48:54.049Z,16.68
2018-09-27T09:51:24.263Z,16.82
2018-09-27T09:53:55.436Z,16.95
2018-09-27T09:56:25.390Z,16.89
2018-09-27T09:58:55.696Z,16.98
2018-09-27T10:01:25.723Z,16.97
2018-09-27T10:03:55.996Z,17.09
2018-09-27T10:06:26.161Z,17.11
2018-09-27T10:08:56.481Z,17.23
2018-09-27T10:11:26.627Z,17.26
2018-09-27T10:13:56.911Z,17.46
2018-09-27T10:16:27.977Z,17.62
2018-09-27T10:18:59.241Z,17.52
2018-09-27T10:21:29.788Z,17.46
2018-09-27T10:24:00.314Z,17.15
2018-09-27T10:26:30.337Z,17.00
2018-09-27T10:29:02.156Z,16.95
2018-09-27T10:31:32.236Z,16.68
2018-09-27T10:34:02.413Z,16.83
2018-09-27T10:36:32.819Z,16.96
2018-09-27T10:39:04.164Z,17.06
2018-09-27T10:41:33.998Z,17.01
2018-09-27T10:44:04.310Z,16.95
2018-09-27T10:46:34.485Z,16.94
2018-09-27T10:49:04.479Z,17.00
2018-09-27T10:51:34.582Z,17.08
2018-09-27T10:54:04.827Z,17.01
2018-09-27T10:56:35.068Z,17.05
2018-09-27T10:59:06.028Z,17.06
2018-09-27T11:01:36.214Z,17.05
2018-09-27T11:04:07.319Z,17.10
2018-09-27T11:06:37.853Z,17.14
2018-09-27T11:09:09.914Z,17.22
2018-09-27T11:11:40.788Z,17.38
2018-09-27T11:14:11.022Z,17.52
2018-09-27T11:16:41.110Z,17.58
2018-09-27T11:19:11.397Z,17.56
2018-09-27T11:21:41.755Z,17.54
2018-09-27T11:24:12.209Z,17.56
2018-09-27T11:26:42.677Z,17.55
2018-09-27T11:29:17.848Z,17.53
2018-09-27T11:31:53.064Z,17.46
2018-09-27T11:34:24.724Z,17.51
2018-09-27T11:36:54.913Z,17.55
2018-09-27T11:39:26.176Z,17.55
2018-09-27T11:41:56.359Z,17.47
2018-09-27T11:44:27.707Z,17.47
2018-09-27T11:46:59.008Z,17.52
2018-09-27T11:49:29.477Z,17.39
2018-09-27T11:51:59.489Z,17.39
2018-09-27T11:54:29.730Z,17.32
2018-09-27T11:57:00.261Z,17.44
2018-09-27T11:59:30.447Z,17.55
2018-09-27T12:02:00.532Z,17.53
2018-09-27T12:04:30.826Z,17.47
2018-09-27T12:07:01.355Z,17.39
2018-09-27T12:09:31.577Z,17.49
2018-09-27T12:12:01.907Z,17.38
2018-09-27T12:14:32.087Z,17.44
2018-09-27T12:17:02.825Z,17.32
2018-09-27T12:19:32.914Z,17.30
2018-09-27T12:22:03.534Z,17.37
2018-09-27T12:24:33.685Z,17.27
2018-09-27T12:27:04.087Z,17.24
2018-09-27T12:29:36.174Z,17.31
2018-09-27T12:32:07.348Z,17.33
2018-09-27T12:34:38.335Z,17.32
2018-09-27T12:37:08.815Z,17.24
2018-09-27T12:39:39.384Z,17.28
2018-09-27T12:42:10.502Z,17.26
2018-09-27T12:44:40.526Z,17.22
2018-09-27T12:47:10.607Z,17.33
2018-09-27T12:49:40.795Z,17.27
2018-09-27T12:52:11.201Z,17.23
2018-09-27T12:54:41.309Z,17.11
2018-09-27T12:57:11.593Z,17.22
2018-09-27T12:59:43.617Z,17.15
2018-09-27T13:02:13.686Z,17.16
2018-09-27T13:04:43.734Z,17.10
2018-09-27T13:07:13.748Z,17.15
2018-09-27T13:09:44.001Z,17.27
2018-09-27T13:12:14.079Z,17.29
2018-09-27T13:14:45.164Z,17.23
2018-09-27T13:17:16.389Z,17.27
2018-09-27T13:19:46.857Z,17.26
2018-09-27T13:22:16.985Z,17.30
2018-09-27T13:24:47.241Z,17.24
2018-09-27T13:27:17.401Z,17.23
2018-09-27T13:29:47.651Z,17.19
2018-09-27T13:32:18.858Z,17.17
2018-09-27T13:34:48.974Z,17.00
2018-09-27T13:37:19.276Z,16.96
2018-09-27T13:39:50.223Z,16.99
2018-09-27T13:42:20.641Z,16.86
2018-09-27T13:44:51.026Z,16.76
2018-09-27T13:47:21.264Z,16.76
2018-09-27T13:49:51.483Z,16.70
2018-09-27T13:52:21.877Z,16.74
2018-09-27T13:54:52.433Z,16.52
2018-09-27T13:57:22.804Z,16.43
2018-09-27T13:59:53.108Z,16.50
2018-09-27T14:02:23.184Z,16.42
2018-09-27T14:04:54.880Z,16.32
2018-09-27T14:07:25.399Z,16.44
2018-09-27T14:09:55.709Z,16.38
2018-09-27T14:12:25.974Z,16.31
2018-09-27T14:14:56.571Z,16.19
2018-09-27T14:17:26.715Z,16.29
2018-09-27T14:19:57.116Z,16.21
2018-09-27T14:22:27.193Z,16.12
2018-09-27T14:24:57.708Z,16.15
2018-09-27T14:27:27.977Z,16.25
2018-09-27T14:29:58.072Z,16.04
2018-09-27T14:32:29.248Z,16.13
2018-09-27T14:35:00.406Z,16.22
2018-09-27T14:37:30.960Z,16.11
2018-09-27T14:40:01.447Z,16.10
2018-09-27T14:42:32.401Z,16.18
2018-09-27T14:45:03.702Z,16.03
2018-09-27T14:47:37.590Z,16.05
2018-09-27T14:50:10.125Z,15.91
2018-09-27T14:52:41.374Z,15.86
2018-09-27T14:55:11.867Z,15.96
2018-09-27T14:57:42.572Z,16.01
2018-09-27T15:00:13.205Z,15.91
2018-09-27T15:02:44.295Z,15.86
2018-09-27T15:05:15.524Z,15.76
2018-09-27T15:07:46.162Z,15.71
2018-09-27T15:10:16.397Z,15.67
2018-09-27T15:12:46.577Z,15.63
2018-09-27T15:15:16.771Z,15.62
2018-09-27T15:17:46.907Z,15.46
2018-09-27T15:20:17.665Z,15.45
2018-09-27T15:22:48.511Z,15.44
2018-09-27T15:25:18.804Z,15.37
2018-09-27T15:27:48.876Z,15.33
2018-09-27T15:30:18.795Z,15.30
2018-09-27T15:32:49.031Z,15.25
2018-09-27T15:35:20.914Z,15.21
2018-09-27T15:37:51.207Z,15.12
2018-09-27T15:40:21.301Z,15.10
2018-09-27T15:42:52.657Z,15.02
2018-09-27T15:45:22.672Z,14.95
2018-09-27T15:47:53.861Z,14.83
2018-09-27T15:50:24.054Z,14.77
2018-09-27T15:52:54.465Z,14.55
2018-09-27T15:55:24.774Z,14.58
2018-09-27T15:57:55.768Z,14.54
2018-09-27T16:00:27.077Z,14.37
2018-09-27T16:02:57.356Z,14.32
2018-09-27T16:05:28.464Z,14.12
2018-09-27T16:07:58.896Z,14.15
2018-09-27T16:10:29.052Z,14.07
2018-09-27T16:12:59.264Z,13.97
2018-09-27T16:15:31.539Z,13.83
2018-09-27T16:18:02.232Z,13.70
2018-09-27T16:20:32.627Z,13.62
2018-09-27T16:23:02.876Z,13.47
2018-09-27T16:25:34.425Z,13.36
2018-09-27T16:28:04.244Z,13.31
2018-09-27T16:30:34.470Z,13.21
2018-09-27T16:33:05.898Z,13.06
2018-09-27T16:35:36.591Z,13.03
2018-09-27T16:38:06.782Z,12.97
2018-09-27T16:40:37.157Z,12.84
2018-09-27T16:43:07.363Z,12.73
2018-09-27T16:45:37.563Z,12.70
2018-09-27T16:48:08.025Z,12.66
2018-09-27T16:50:39.169Z,12.62
2018-09-27T16:53:10.680Z,12.59
2018-09-27T16:55:41.907Z,12.50
2018-09-27T16:58:12.120Z,12.43
2018-09-27T17:00:42.268Z,12.38
2018-09-27T17:03:12.718Z,12.36
2018-09-27T17:05:42.532Z,12.38
2018-09-27T17:08:13.520Z,12.34
2018-09-27T17:10:43.814Z,12.21
2018-09-27T17:13:14.128Z,12.19
2018-09-27T17:15:44.744Z,12.21
2018-09-27T17:18:15.199Z,12.15
2018-09-27T17:20:45.767Z,12.07
2018-09-27T17:23:15.837Z,12.05
2018-09-27T17:25:46.090Z,12.04
2018-09-27T17:28:17.247Z,12.03
2018-09-27T17:30:47.442Z,12.06
2018-09-27T17:33:18.243Z,12.00
2018-09-27T17:35:48.573Z,11.99
2018-09-27T17:38:18.933Z,11.91
2018-09-27T17:40:50.151Z,11.84
2018-09-27T17:43:21.626Z,11.87
2018-09-27T17:45:52.038Z,11.88
2018-09-27T17:48:23.628Z,11.84
2018-09-27T17:50:54.385Z,11.80
2018-09-27T17:53:25.579Z,11.80
2018-09-27T17:55:55.912Z,11.75
2018-09-27T17:58:26.186Z,11.79
2018-09-27T18:00:56.450Z,11.72
2018-09-27T18:03:27.844Z,11.66
2018-09-27T18:05:58.740Z,11.70
2018-09-27T18:08:29.162Z,11.67
2018-09-27T18:10:59.053Z,11.66
2018-09-27T18:13:29.233Z,11.63
2018-09-27T18:15:59.475Z,11.56
2018-09-27T18:18:35.803Z,11.60
2018-09-27T18:21:06.196Z,11.61
2018-09-27T18:23:42.353Z,11.61
2018-09-27T18:26:12.874Z,11.66
2018-09-27T18:28:43.446Z,11.60
2018-09-27T18:31:14.770Z,11.57
2018-09-27T18:33:46.548Z,11.47
2018-09-27T18:36:17.486Z,11.48
2018-09-27T18:38:47.435Z,11.44
2018-09-27T18:41:17.821Z,11.41
2018-09-27T18:43:48.052Z,11.37
2018-09-27T18:46:18.281Z,11.34
2018-09-27T18:48:48.592Z,11.31
2018-09-27T18:51:19.840Z,11.34
2018-09-27T18:53:50.016Z,11.41
2018-09-27T18:56:21.162Z,11.57
2018-09-27T18:58:51.317Z,11.48
2018-09-27T19:01:21.741Z,11.34
2018-09-27T19:03:51.810Z,11.33
2018-09-27T19:06:24.040Z,11.29
2018-09-27T19:08:54.578Z,11.32
2018-09-27T19:11:25.086Z,11.31
2018-09-27T19:13:55.653Z,11.42
2018-09-27T19:16:25.849Z,11.40
2018-09-27T19:18:56.404Z,11.37
2018-09-27T19:21:27.789Z,11.32
2018-09-27T19:23:58.878Z,11.29
2018-09-27T19:26:28.933Z,11.35
2018-09-27T19:28:59.464Z,11.33
2018-09-27T19:31:30.690Z,11.29
2018-09-27T19:34:01.852Z,11.27
2018-09-27T19:36:32.054Z,11.33
2018-09-27T19:39:02.997Z,11.35
2018-09-27T19:41:33.010Z,11.30
2018-09-27T19:44:03.478Z,11.19
2018-09-27T19:46:33.416Z,11.24
2018-09-27T19:49:03.449Z,11.41
2018-09-27T19:51:33.349Z,11.36
2018-09-27T19:54:03.618Z,11.32
2018-09-27T19:56:35.099Z,11.29
2018-09-27T19:59:05.454Z,11.29
2018-09-27T20:01:35.752Z,11.24
2018-09-27T20:04:05.819Z,11.23
2018-09-27T20:06:36.288Z,11.17
2018-09-27T20:09:09.403Z,11.15
2018-09-27T20:11:39.451Z,11.32
2018-09-27T20:14:09.718Z,11.21
2018-09-27T20:16:40.075Z,11.27
2018-09-27T20:19:11.002Z,11.29
2018-09-27T20:21:41.207Z,11.24
2018-09-27T20:24:12.022Z,11.29
2018-09-27T20:26:42.473Z,11.31
2018-09-27T20:29:13.109Z,11.29
2018-09-27T20:31:43.743Z,11.28
2018-09-27T20:34:15.137Z,11.39
2018-09-27T20:36:45.297Z,11.39
2018-09-27T20:39:16.357Z,11.30
2018-09-27T20:41:46.581Z,11.42
2018-09-27T20:44:17.374Z,11.43
2018-09-27T20:46:47.542Z,11.38
2018-09-27T20:49:17.768Z,11.32
2018-09-27T20:51:47.994Z,11.34
2018-09-27T20:54:18.489Z,11.32
2018-09-27T20:56:50.104Z,11.30
2018-09-27T20:59:20.335Z,11.40
2018-09-27T21:01:51.848Z,11.31
2018-09-27T21:04:22.304Z,11.27
2018-09-27T21:06:52.516Z,11.22
2018-09-27T21:09:23.084Z,11.32
2018-09-27T21:11:53.570Z,11.29
2018-09-27T21:14:23.939Z,11.24
2018-09-27T21:16:54.084Z,11.30
2018-09-27T21:19:25.116Z,11.24
2018-09-27T21:21:55.173Z,11.24
2018-09-27T21:24:25.641Z,11.26
2018-09-27T21:26:55.812Z,11.18
2018-09-27T21:29:26.278Z,11.19
2018-09-27T21:31:56.691Z,11.14
2018-09-27T21:34:26.783Z,11.19
2018-09-27T21:36:58.093Z,11.23
2018-09-27T21:39:29.511Z,11.17
2018-09-27T21:42:00.021Z,11.14
2018-09-27T21:44:31.492Z,11.09
2018-09-27T21:47:01.765Z,11.01
2018-09-27T21:49:32.092Z,11.04
2018-09-27T21:52:03.440Z,11.00
2018-09-27T21:54:33.682Z,11.06
2018-09-27T21:57:03.989Z,11.09
2018-09-27T21:59:34.417Z,11.10
2018-09-27T22:02:05.601Z,11.06
2018-09-27T22:04:35.998Z,11.09
2018-09-27T22:07:06.165Z,11.06
2018-09-27T22:09:37.845Z,11.04
2018-09-27T22:12:08.045Z,11.00
2018-09-27T22:14:38.418Z,11.02
2018-09-27T22:17:08.760Z,10.96
2018-09-27T22:19:39.043Z,10.93
2018-09-27T22:22:09.451Z,10.90
2018-09-27T22:24:39.766Z,10.86
2018-09-27T22:27:10.088Z,10.89
2018-09-27T22:29:40.480Z,10.91
2018-09-27T22:32:10.699Z,10.86
2018-09-27T22:34:40.803Z,10.75
2018-09-27T22:37:11.245Z,10.87
2018-09-27T22:39:42.373Z,10.85
2018-09-27T22:42:13.410Z,10.79
2018-09-27T22:44:43.589Z,10.73
2018-09-27T22:47:14.822Z,10.68
2018-09-27T22:49:45.583Z,10.70
2018-09-27T22:52:15.797Z,10.70
2018-09-27T22:54:45.818Z,10.73
2018-09-27T22:57:17.132Z,10.64
2018-09-27T22:59:47.487Z,10.75
2018-09-27T23:02:18.049Z,10.75
2018-09-27T23:04:49.197Z,10.75
2018-09-27T23:07:19.331Z,10.73
2018-09-27T23:09:51.267Z,10.67
2018-09-27T23:12:21.343Z,10.70
2018-09-27T23:14:51.711Z,10.67
2018-09-27T23:17:22.222Z,10.67
2018-09-27T23:19:52.486Z,10.63
2018-09-27T23:22:23.317Z,10.60
2018-09-27T23:24:53.487Z,10.66
2018-09-27T23:27:25.896Z,10.68
2018-09-27T23:29:56.107Z,10.66
2018-09-27T23:32:26.033Z,10.63
2018-09-27T23:34:56.346Z,10.57
2018-09-27T23:37:26.579Z,10.54
2018-09-27T23:39:56.679Z,10.50
2018-09-27T23:42:26.967Z,10.51
2018-09-27T23:44:57.436Z,10.53
2018-09-27T23:47:27.891Z,10.61
2018-09-27T23:49:57.817Z,10.59
2018-09-27T23:52:28.028Z,10.53
2018-09-27T23:54:58.384Z,10.55
2018-09-27T23:57:28.580Z,10.52
2018-09-27T23:59:58.929Z,10.54
